Strona główna
METAR-TAF:

METAR-TAF

Lotnisko :

Pikeville, Kentucky, Stany Zjednoczone

Szerokość geograficzna: 37-33-42N, Długość geograficzna: 082-33-59W, wysokość: 449 m

Aktualna obserwacja pogody

Raport powstał 32 minut temu, godzina 17:55 UTC
Cisza
Temperatura 29°C
Wilgotność 62%
Ciśnienie 1022 hPa
Widzialność: 16.1 km
bezchmurnie

METAR: KPBX 151755Z AUTO 00000KT 10SM CLR 29/21 A3018 RMK AO2 T02910205 10295 20229

czas: 14:27 (18:27 UTC)


TAF: brakujący

Obserwacja i prognoza pogody dla ponad 4000 lotnisk (raport METAR i TAF).

Dostępne stacje oznaczono żółtymi i czerwonymi punktami na mapie.

Najedź kursorem aby zobaczyć nazwę stacji.

Kliknij aby zobaczyć obserwacje i prognozy pogody.

Aby zmienić mapę: kliknij na zielony przycisk z czarnym krzyżykiem, aby powiększyć; na zielony przycisk z myślnikiem, aby pomniejszyć; na zielone strzałki, aby przejść do map sąsiednich.


METAR-TAF: